Vojens, Denmark
Current Conditions -  °F | °C
As of 2:20 AM on Tuesday 27 Jan 2015 (Local Time) from EKSP Reporting Station
Few Clouds Few Clouds  
Wind Chill: 28°   Ceiling: Unl
Heat Index: 36°   Visibility: 6mi
Dew Point: 34°   Wind: 10mph
Humidity: 93%   Direction: 280°W
Pressure: 29.85"   Gusts: NA
Location:  55.25°N, 9.31°E
Report Text: EKSP 270120Z 28009KT 9999 FEW030 02/01 Q1011
Loading
Personal Weather Stations






























Interactive Weather Map New forecast layout! Learn more

10-Day Weather Forecast

Advertisements
Track Severe Weather on mobile